sensor_id;sensor_type;location;lat;lon;timestamp;temperature;humidity
23186;DHT22;11761;51.324;4.590;2022-08-25T00:01:25;20.60;99.90
23186;DHT22;11761;51.324;4.590;2022-08-25T00:03:51;20.60;99.90
23186;DHT22;11761;51.324;4.590;2022-08-25T00:06:18;20.50;99.90
23186;DHT22;11761;51.324;4.590;2022-08-25T00:08:45;20.50;99.90
23186;DHT22;11761;51.324;4.590;2022-08-25T00:11:18;20.50;99.90
23186;DHT22;11761;51.324;4.590;2022-08-25T00:13:46;20.40;99.90
23186;DHT22;11761;51.324;4.590;2022-08-25T00:16:16;20.40;99.90
23186;DHT22;11761;51.324;4.590;2022-08-25T00:18:45;20.40;99.90
23186;DHT22;11761;51.324;4.590;2022-08-25T00:21:12;20.40;99.90
23186;DHT22;11761;51.324;4.590;2022-08-25T00:23:39;20.30;99.90
23186;DHT22;11761;51.324;4.590;2022-08-25T00:26:07;20.30;99.90
23186;DHT22;11761;51.324;4.590;2022-08-25T00:28:33;20.20;99.90
23186;DHT22;11761;51.324;4.590;2022-08-25T00:31:02;20.20;99.90
23186;DHT22;11761;51.324;4.590;2022-08-25T00:33:30;20.20;99.90
23186;DHT22;11761;51.324;4.590;2022-08-25T00:35:56;20.10;99.90
23186;DHT22;11761;51.324;4.590;2022-08-25T00:38:23;20.10;99.90
23186;DHT22;11761;51.324;4.590;2022-08-25T00:40:50;20.10;99.90
23186;DHT22;11761;51.324;4.590;2022-08-25T00:43:41;20.10;99.90
23186;DHT22;11761;51.324;4.590;2022-08-25T00:46:14;20.10;99.90
23186;DHT22;11761;51.324;4.590;2022-08-25T00:48:43;20.10;99.90
23186;DHT22;11761;51.324;4.590;2022-08-25T00:51:13;20.10;99.90
23186;DHT22;11761;51.324;4.590;2022-08-25T00:53:42;20.30;99.90
23186;DHT22;11761;51.324;4.590;2022-08-25T00:56:09;20.30;99.90
23186;DHT22;11761;51.324;4.590;2022-08-25T00:58:36;20.20;99.90
23186;DHT22;11761;51.324;4.590;2022-08-25T01:01:03;20.20;99.90
23186;DHT22;11761;51.324;4.590;2022-08-25T01:03:30;20.30;99.90
23186;DHT22;11761;51.324;4.590;2022-08-25T01:06:00;20.40;99.90
23186;DHT22;11761;51.324;4.590;2022-08-25T01:08:28;20.30;99.90
23186;DHT22;11761;51.324;4.590;2022-08-25T01:11:00;20.20;99.90
23186;DHT22;11761;51.324;4.590;2022-08-25T01:13:40;20.10;99.90
23186;DHT22;11761;51.324;4.590;2022-08-25T01:16:07;20.10;99.90
23186;DHT22;11761;51.324;4.590;2022-08-25T01:18:50;20.10;99.90
23186;DHT22;11761;51.324;4.590;2022-08-25T01:21:19;20.00;99.90
23186;DHT22;11761;51.324;4.590;2022-08-25T01:23:46;19.90;99.90
23186;DHT22;11761;51.324;4.590;2022-08-25T01:26:25;19.80;99.90
23186;DHT22;11761;51.324;4.590;2022-08-25T01:28:52;19.70;99.90
23186;DHT22;11761;51.324;4.590;2022-08-25T01:31:38;19.70;99.90
23186;DHT22;11761;51.324;4.590;2022-08-25T01:34:07;19.60;99.90
23186;DHT22;11761;51.324;4.590;2022-08-25T01:36:34;19.50;99.90
23186;DHT22;11761;51.324;4.590;2022-08-25T01:39:02;19.50;99.90
23186;DHT22;11761;51.324;4.590;2022-08-25T01:43:54;19.40;99.90
23186;DHT22;11761;51.324;4.590;2022-08-25T01:46:21;19.30;99.90
23186;DHT22;11761;51.324;4.590;2022-08-25T01:48:47;19.20;99.90
23186;DHT22;11761;51.324;4.590;2022-08-25T01:51:15;19.20;99.90
23186;DHT22;11761;51.324;4.590;2022-08-25T01:53:41;19.10;99.90
23186;DHT22;11761;51.324;4.590;2022-08-25T01:56:14;19.00;99.90
23186;DHT22;11761;51.324;4.590;2022-08-25T01:58:45;19.00;99.90
23186;DHT22;11761;51.324;4.590;2022-08-25T02:01:18;18.90;99.90
23186;DHT22;11761;51.324;4.590;2022-08-25T02:03:47;18.90;99.90
23186;DHT22;11761;51.324;4.590;2022-08-25T02:06:17;18.80;99.90
23186;DHT22;11761;51.324;4.590;2022-08-25T02:08:44;18.80;99.90
23186;DHT22;11761;51.324;4.590;2022-08-25T02:11:12;18.70;99.90
23186;DHT22;11761;51.324;4.590;2022-08-25T02:13:39;18.60;99.90
23186;DHT22;11761;51.324;4.590;2022-08-25T02:16:07;18.60;99.90
23186;DHT22;11761;51.324;4.590;2022-08-25T02:18:35;18.50;99.90
23186;DHT22;11761;51.324;4.590;2022-08-25T02:21:01;18.50;99.90
23186;DHT22;11761;51.324;4.590;2022-08-25T02:23:27;18.50;99.90
23186;DHT22;11761;51.324;4.590;2022-08-25T02:25:53;18.40;99.90
23186;DHT22;11761;51.324;4.590;2022-08-25T02:28:22;18.40;99.90
23186;DHT22;11761;51.324;4.590;2022-08-25T02:30:48;18.30;99.90
23186;DHT22;11761;51.324;4.590;2022-08-25T02:33:14;18.30;99.90
23186;DHT22;11761;51.324;4.590;2022-08-25T02:35:40;18.20;99.90
23186;DHT22;11761;51.324;4.590;2022-08-25T02:38:07;18.20;99.90
23186;DHT22;11761;51.324;4.590;2022-08-25T02:40:33;18.20;99.90
23186;DHT22;11761;51.324;4.590;2022-08-25T02:42:59;18.10;99.90
23186;DHT22;11761;51.324;4.590;2022-08-25T02:45:25;18.10;99.90
23186;DHT22;11761;51.324;4.590;2022-08-25T02:47:51;18.10;99.90
23186;DHT22;11761;51.324;4.590;2022-08-25T02:50:18;18.00;99.90
23186;DHT22;11761;51.324;4.590;2022-08-25T02:52:45;18.00;99.90
23186;DHT22;11761;51.324;4.590;2022-08-25T02:55:11;18.00;99.90
23186;DHT22;11761;51.324;4.590;2022-08-25T02:57:40;17.90;99.90
23186;DHT22;11761;51.324;4.590;2022-08-25T03:00:11;17.90;99.90
23186;DHT22;11761;51.324;4.590;2022-08-25T03:02:38;17.90;99.90
23186;DHT22;11761;51.324;4.590;2022-08-25T03:05:07;17.90;99.90
23186;DHT22;11761;51.324;4.590;2022-08-25T03:07:35;17.90;99.90
23186;DHT22;11761;51.324;4.590;2022-08-25T03:10:07;17.90;99.90
23186;DHT22;11761;51.324;4.590;2022-08-25T03:12:34;17.90;99.90
23186;DHT22;11761;51.324;4.590;2022-08-25T03:15:00;17.90;99.90
23186;DHT22;11761;51.324;4.590;2022-08-25T03:17:26;18.00;99.90
23186;DHT22;11761;51.324;4.590;2022-08-25T03:19:52;17.90;99.90
23186;DHT22;11761;51.324;4.590;2022-08-25T03:22:18;17.80;99.90
23186;DHT22;11761;51.324;4.590;2022-08-25T03:24:44;17.80;99.90
23186;DHT22;11761;51.324;4.590;2022-08-25T03:27:10;17.90;99.90
23186;DHT22;11761;51.324;4.590;2022-08-25T03:29:36;17.80;99.90
23186;DHT22;11761;51.324;4.590;2022-08-25T03:32:03;17.90;99.90
23186;DHT22;11761;51.324;4.590;2022-08-25T03:34:30;17.80;99.90
23186;DHT22;11761;51.324;4.590;2022-08-25T03:36:57;17.80;99.90
23186;DHT22;11761;51.324;4.590;2022-08-25T03:39:24;17.80;99.90
23186;DHT22;11761;51.324;4.590;2022-08-25T03:41:52;17.70;99.90
23186;DHT22;11761;51.324;4.590;2022-08-25T03:44:19;17.80;99.90
23186;DHT22;11761;51.324;4.590;2022-08-25T03:46:48;17.80;99.90
23186;DHT22;11761;51.324;4.590;2022-08-25T03:49:19;17.80;99.90
23186;DHT22;11761;51.324;4.590;2022-08-25T03:51:47;17.70;99.90
23186;DHT22;11761;51.324;4.590;2022-08-25T03:54:16;17.70;99.90
23186;DHT22;11761;51.324;4.590;2022-08-25T03:56:42;17.80;99.90
23186;DHT22;11761;51.324;4.590;2022-08-25T03:59:08;17.80;99.90
23186;DHT22;11761;51.324;4.590;2022-08-25T04:01:42;17.80;99.90
23186;DHT22;11761;51.324;4.590;2022-08-25T04:04:09;17.80;99.90
23186;DHT22;11761;51.324;4.590;2022-08-25T04:06:38;17.80;99.90
23186;DHT22;11761;51.324;4.590;2022-08-25T04:09:05;17.70;99.90
23186;DHT22;11761;51.324;4.590;2022-08-25T04:11:31;17.60;99.90
23186;DHT22;11761;51.324;4.590;2022-08-25T04:13:58;17.60;99.90
23186;DHT22;11761;51.324;4.590;2022-08-25T04:16:28;17.70;99.90
23186;DHT22;11761;51.324;4.590;2022-08-25T04:18:57;17.70;99.90
23186;DHT22;11761;51.324;4.590;2022-08-25T04:21:25;17.60;99.90
23186;DHT22;11761;51.324;4.590;2022-08-25T04:23:53;17.60;99.90
23186;DHT22;11761;51.324;4.590;2022-08-25T04:29:19;17.60;99.90
23186;DHT22;11761;51.324;4.590;2022-08-25T04:31:46;17.60;99.90
23186;DHT22;11761;51.324;4.590;2022-08-25T04:34:16;17.60;99.90
23186;DHT22;11761;51.324;4.590;2022-08-25T04:36:42;17.50;99.90
23186;DHT22;11761;51.324;4.590;2022-08-25T04:39:09;17.50;99.90
23186;DHT22;11761;51.324;4.590;2022-08-25T04:41:35;17.50;99.90
23186;DHT22;11761;51.324;4.590;2022-08-25T04:44:01;17.40;99.90
23186;DHT22;11761;51.324;4.590;2022-08-25T04:46:30;17.40;99.90
23186;DHT22;11761;51.324;4.590;2022-08-25T04:48:58;17.30;99.90
23186;DHT22;11761;51.324;4.590;2022-08-25T04:51:29;17.30;99.90
23186;DHT22;11761;51.324;4.590;2022-08-25T04:53:58;17.30;99.90
23186;DHT22;11761;51.324;4.590;2022-08-25T04:56:26;17.30;99.90
23186;DHT22;11761;51.324;4.590;2022-08-25T04:58:53;17.20;99.90
23186;DHT22;11761;51.324;4.590;2022-08-25T05:01:22;17.20;99.90
23186;DHT22;11761;51.324;4.590;2022-08-25T05:03:55;17.20;99.90
23186;DHT22;11761;51.324;4.590;2022-08-25T05:06:21;17.20;99.90
23186;DHT22;11761;51.324;4.590;2022-08-25T05:08:48;17.20;99.90
23186;DHT22;11761;51.324;4.590;2022-08-25T05:11:15;17.20;99.90
23186;DHT22;11761;51.324;4.590;2022-08-25T05:13:44;17.20;99.90
23186;DHT22;11761;51.324;4.590;2022-08-25T05:16:11;17.30;99.90
23186;DHT22;11761;51.324;4.590;2022-08-25T05:18:37;17.30;99.90
23186;DHT22;11761;51.324;4.590;2022-08-25T05:21:12;17.30;99.90
23186;DHT22;11761;51.324;4.590;2022-08-25T05:23:39;17.40;99.90
23186;DHT22;11761;51.324;4.590;2022-08-25T05:26:11;17.50;99.90
23186;DHT22;11761;51.324;4.590;2022-08-25T05:28:38;17.60;99.90
23186;DHT22;11761;51.324;4.590;2022-08-25T05:31:10;17.60;99.90
23186;DHT22;11761;51.324;4.590;2022-08-25T05:33:37;17.70;99.90
23186;DHT22;11761;51.324;4.590;2022-08-25T05:36:05;17.90;99.90
23186;DHT22;11761;51.324;4.590;2022-08-25T05:38:31;18.00;99.90
23186;DHT22;11761;51.324;4.590;2022-08-25T05:41:00;18.60;99.90
23186;DHT22;11761;51.324;4.590;2022-08-25T05:43:26;20.50;99.90
23186;DHT22;11761;51.324;4.590;2022-08-25T05:45:54;21.40;99.90
23186;DHT22;11761;51.324;4.590;2022-08-25T05:48:21;21.00;99.90
23186;DHT22;11761;51.324;4.590;2022-08-25T05:53:18;20.00;99.90
23186;DHT22;11761;51.324;4.590;2022-08-25T05:55:44;19.90;99.90
23186;DHT22;11761;51.324;4.590;2022-08-25T05:58:10;19.90;99.90
23186;DHT22;11761;51.324;4.590;2022-08-25T06:00:38;20.50;99.90
23186;DHT22;11761;51.324;4.590;2022-08-25T06:03:04;20.50;99.90
23186;DHT22;11761;51.324;4.590;2022-08-25T06:05:30;20.30;99.90
23186;DHT22;11761;51.324;4.590;2022-08-25T06:07:57;20.40;99.90
23186;DHT22;11761;51.324;4.590;2022-08-25T06:10:25;20.40;99.90
23186;DHT22;11761;51.324;4.590;2022-08-25T06:12:51;20.30;99.90
23186;DHT22;11761;51.324;4.590;2022-08-25T06:15:19;20.60;99.90
23186;DHT22;11761;51.324;4.590;2022-08-25T06:17:47;21.00;99.90
23186;DHT22;11761;51.324;4.590;2022-08-25T06:20:15;21.50;99.90
23186;DHT22;11761;51.324;4.590;2022-08-25T06:22:42;22.80;99.90
23186;DHT22;11761;51.324;4.590;2022-08-25T06:25:10;24.70;99.90
23186;DHT22;11761;51.324;4.590;2022-08-25T06:27:37;26.10;99.90
23186;DHT22;11761;51.324;4.590;2022-08-25T06:30:05;26.80;99.90
23186;DHT22;11761;51.324;4.590;2022-08-25T06:32:38;27.70;99.90
23186;DHT22;11761;51.324;4.590;2022-08-25T06:35:06;27.50;99.90
23186;DHT22;11761;51.324;4.590;2022-08-25T06:37:34;28.50;99.90
23186;DHT22;11761;51.324;4.590;2022-08-25T06:40:00;28.60;99.90
23186;DHT22;11761;51.324;4.590;2022-08-25T06:42:26;28.50;99.90
23186;DHT22;11761;51.324;4.590;2022-08-25T06:44:52;27.90;99.90
23186;DHT22;11761;51.324;4.590;2022-08-25T06:47:18;27.30;99.90
23186;DHT22;11761;51.324;4.590;2022-08-25T06:49:45;26.10;99.90
23186;DHT22;11761;51.324;4.590;2022-08-25T06:52:12;25.40;99.90
23186;DHT22;11761;51.324;4.590;2022-08-25T06:54:39;24.70;99.90
23186;DHT22;11761;51.324;4.590;2022-08-25T06:57:06;24.40;99.90
23186;DHT22;11761;51.324;4.590;2022-08-25T06:59:33;24.20;99.90
23186;DHT22;11761;51.324;4.590;2022-08-25T07:02:00;23.90;99.90
23186;DHT22;11761;51.324;4.590;2022-08-25T07:04:26;24.00;99.90
23186;DHT22;11761;51.324;4.590;2022-08-25T07:06:52;23.80;99.90
23186;DHT22;11761;51.324;4.590;2022-08-25T07:09:19;23.60;99.90
23186;DHT22;11761;51.324;4.590;2022-08-25T07:11:46;23.80;99.90
23186;DHT22;11761;51.324;4.590;2022-08-25T07:14:14;23.90;99.90
23186;DHT22;11761;51.324;4.590;2022-08-25T07:16:41;24.10;99.90
23186;DHT22;11761;51.324;4.590;2022-08-25T07:19:09;24.00;99.90
23186;DHT22;11761;51.324;4.590;2022-08-25T07:21:37;24.10;99.90
23186;DHT22;11761;51.324;4.590;2022-08-25T07:24:07;24.00;99.90
23186;DHT22;11761;51.324;4.590;2022-08-25T07:26:35;24.00;99.90
23186;DHT22;11761;51.324;4.590;2022-08-25T07:29:05;23.80;99.90
23186;DHT22;11761;51.324;4.590;2022-08-25T07:31:32;23.80;99.90
23186;DHT22;11761;51.324;4.590;2022-08-25T07:33:58;23.90;99.90
23186;DHT22;11761;51.324;4.590;2022-08-25T07:36:43;23.90;99.90
23186;DHT22;11761;51.324;4.590;2022-08-25T07:39:09;23.90;99.90
23186;DHT22;11761;51.324;4.590;2022-08-25T07:41:37;24.10;99.90
23186;DHT22;11761;51.324;4.590;2022-08-25T07:44:04;24.20;99.90
23186;DHT22;11761;51.324;4.590;2022-08-25T07:46:31;24.30;99.90
23186;DHT22;11761;51.324;4.590;2022-08-25T07:48:57;24.50;99.90
23186;DHT22;11761;51.324;4.590;2022-08-25T07:51:23;24.70;99.90
23186;DHT22;11761;51.324;4.590;2022-08-25T07:53:49;24.70;99.90
23186;DHT22;11761;51.324;4.590;2022-08-25T07:56:15;24.70;99.90
23186;DHT22;11761;51.324;4.590;2022-08-25T07:58:42;24.70;99.90
23186;DHT22;11761;51.324;4.590;2022-08-25T08:01:16;24.70;99.90
23186;DHT22;11761;51.324;4.590;2022-08-25T08:03:43;24.70;99.90
23186;DHT22;11761;51.324;4.590;2022-08-25T08:06:12;24.60;99.90
23186;DHT22;11761;51.324;4.590;2022-08-25T08:08:39;24.60;99.90
23186;DHT22;11761;51.324;4.590;2022-08-25T08:11:35;24.50;99.90
23186;DHT22;11761;51.324;4.590;2022-08-25T08:14:02;24.50;99.90
23186;DHT22;11761;51.324;4.590;2022-08-25T08:16:29;24.40;99.90
23186;DHT22;11761;51.324;4.590;2022-08-25T08:18:57;24.30;99.90
23186;DHT22;11761;51.324;4.590;2022-08-25T08:21:30;24.30;99.90
23186;DHT22;11761;51.324;4.590;2022-08-25T08:23:57;24.30;99.90
23186;DHT22;11761;51.324;4.590;2022-08-25T08:26:24;24.40;99.90
23186;DHT22;11761;51.324;4.590;2022-08-25T08:28:51;24.30;99.90
23186;DHT22;11761;51.324;4.590;2022-08-25T08:31:19;24.30;99.90
23186;DHT22;11761;51.324;4.590;2022-08-25T08:33:47;24.20;99.90
23186;DHT22;11761;51.324;4.590;2022-08-25T08:36:13;24.30;99.90
23186;DHT22;11761;51.324;4.590;2022-08-25T08:38:41;24.30;99.90
23186;DHT22;11761;51.324;4.590;2022-08-25T08:47:19;24.60;99.90
23186;DHT22;11761;51.324;4.590;2022-08-25T08:55:43;24.90;99.90
23186;DHT22;11761;51.324;4.590;2022-08-25T08:58:17;25.20;99.90
23186;DHT22;11761;51.324;4.590;2022-08-25T09:00:47;25.50;99.90
23186;DHT22;11761;51.324;4.590;2022-08-25T09:03:35;25.70;99.90
23186;DHT22;11761;51.324;4.590;2022-08-25T09:06:07;26.10;99.90
23186;DHT22;11761;51.324;4.590;2022-08-25T09:08:33;26.40;99.90
23186;DHT22;11761;51.324;4.590;2022-08-25T09:14:10;27.30;99.90
23186;DHT22;11761;51.324;4.590;2022-08-25T09:16:56;27.80;99.90
23186;DHT22;11761;51.324;4.590;2022-08-25T09:19:32;27.60;99.90
23186;DHT22;11761;51.324;4.590;2022-08-25T09:25:23;27.50;99.90
23186;DHT22;11761;51.324;4.590;2022-08-25T09:33:29;27.90;99.90
23186;DHT22;11761;51.324;4.590;2022-08-25T09:35:56;28.00;99.90
23186;DHT22;11761;51.324;4.590;2022-08-25T09:38:24;28.00;99.90
23186;DHT22;11761;51.324;4.590;2022-08-25T09:40:54;28.40;99.90
23186;DHT22;11761;51.324;4.590;2022-08-25T09:43:41;28.40;99.90
23186;DHT22;11761;51.324;4.590;2022-08-25T09:48:44;28.70;99.90
23186;DHT22;11761;51.324;4.590;2022-08-25T09:54:02;29.00;99.90
23186;DHT22;11761;51.324;4.590;2022-08-25T09:56:29;29.00;99.90
23186;DHT22;11761;51.324;4.590;2022-08-25T09:59:23;29.20;99.90
23186;DHT22;11761;51.324;4.590;2022-08-25T10:01:52;29.40;99.90
23186;DHT22;11761;51.324;4.590;2022-08-25T10:04:30;29.50;99.90
23186;DHT22;11761;51.324;4.590;2022-08-25T10:06:58;29.70;99.90
23186;DHT22;11761;51.324;4.590;2022-08-25T10:09:40;31.20;99.90
23186;DHT22;11761;51.324;4.590;2022-08-25T10:12:27;30.60;99.90
23186;DHT22;11761;51.324;4.590;2022-08-25T10:14:56;30.20;99.50
23186;DHT22;11761;51.324;4.590;2022-08-25T10:17:30;30.10;99.90
23186;DHT22;11761;51.324;4.590;2022-08-25T10:22:39;30.20;99.90
23186;DHT22;11761;51.324;4.590;2022-08-25T10:25:08;30.20;99.90
23186;DHT22;11761;51.324;4.590;2022-08-25T10:28:14;30.00;99.20
23186;DHT22;11761;51.324;4.590;2022-08-25T10:36:22;30.70;97.90
23186;DHT22;11761;51.324;4.590;2022-08-25T10:39:00;30.80;96.60
23186;DHT22;11761;51.324;4.590;2022-08-25T10:41:37;30.70;97.40
23186;DHT22;11761;51.324;4.590;2022-08-25T10:44:31;30.80;97.10
23186;DHT22;11761;51.324;4.590;2022-08-25T10:49:52;30.70;97.10
23186;DHT22;11761;51.324;4.590;2022-08-25T10:52:36;30.80;97.20
23186;DHT22;11761;51.324;4.590;2022-08-25T10:55:21;30.60;95.90
23186;DHT22;11761;51.324;4.590;2022-08-25T10:57:59;30.70;96.90
23186;DHT22;11761;51.324;4.590;2022-08-25T11:00:41;30.50;95.70
23186;DHT22;11761;51.324;4.590;2022-08-25T11:05:58;31.10;95.30
23186;DHT22;11761;51.324;4.590;2022-08-25T11:08:43;31.20;92.00
23186;DHT22;11761;51.324;4.590;2022-08-25T11:11:40;31.40;94.20
23186;DHT22;11761;51.324;4.590;2022-08-25T11:14:22;31.20;93.00
23186;DHT22;11761;51.324;4.590;2022-08-25T11:17:05;31.00;93.10
23186;DHT22;11761;51.324;4.590;2022-08-25T11:19:38;31.10;92.00
23186;DHT22;11761;51.324;4.590;2022-08-25T11:22:35;31.20;91.90
23186;DHT22;11761;51.324;4.590;2022-08-25T11:25:25;31.20;91.80
23186;DHT22;11761;51.324;4.590;2022-08-25T11:27:58;31.30;91.50
23186;DHT22;11761;51.324;4.590;2022-08-25T11:30:25;31.30;91.00
23186;DHT22;11761;51.324;4.590;2022-08-25T11:32:53;31.10;90.80
23186;DHT22;11761;51.324;4.590;2022-08-25T11:48:53;31.60;89.90
23186;DHT22;11761;51.324;4.590;2022-08-25T11:51:40;31.60;90.10
23186;DHT22;11761;51.324;4.590;2022-08-25T11:54:41;31.60;90.90
23186;DHT22;11761;51.324;4.590;2022-08-25T11:57:19;31.60;90.60
23186;DHT22;11761;51.324;4.590;2022-08-25T12:02:49;31.70;89.70
23186;DHT22;11761;51.324;4.590;2022-08-25T12:11:04;31.60;87.10
23186;DHT22;11761;51.324;4.590;2022-08-25T12:13:48;31.70;90.10
23186;DHT22;11761;51.324;4.590;2022-08-25T12:21:47;32.10;90.00
23186;DHT22;11761;51.324;4.590;2022-08-25T12:24:16;32.10;86.80
23186;DHT22;11761;51.324;4.590;2022-08-25T12:37:03;32.60;84.00
23186;DHT22;11761;51.324;4.590;2022-08-25T12:39:36;32.30;84.90
23186;DHT22;11761;51.324;4.590;2022-08-25T12:47:32;32.60;84.80
23186;DHT22;11761;51.324;4.590;2022-08-25T12:56:05;32.40;82.40
23186;DHT22;11761;51.324;4.590;2022-08-25T13:02:13;32.90;84.20
23186;DHT22;11761;51.324;4.590;2022-08-25T13:13:53;32.30;80.90
23186;DHT22;11761;51.324;4.590;2022-08-25T13:16:24;32.60;81.80
23186;DHT22;11761;51.324;4.590;2022-08-25T13:18:53;32.30;83.90
23186;DHT22;11761;51.324;4.590;2022-08-25T13:21:35;32.30;81.10
23186;DHT22;11761;51.324;4.590;2022-08-25T13:27:02;32.60;84.60
23186;DHT22;11761;51.324;4.590;2022-08-25T13:29:35;32.40;81.50
23186;DHT22;11761;51.324;4.590;2022-08-25T13:32:04;32.50;80.90
23186;DHT22;11761;51.324;4.590;2022-08-25T13:34:33;32.50;80.40
23186;DHT22;11761;51.324;4.590;2022-08-25T13:37:16;32.40;81.70
23186;DHT22;11761;51.324;4.590;2022-08-25T13:40:10;32.50;82.40
23186;DHT22;11761;51.324;4.590;2022-08-25T13:42:39;32.40;83.90
23186;DHT22;11761;51.324;4.590;2022-08-25T13:45:22;32.30;85.20
23186;DHT22;11761;51.324;4.590;2022-08-25T13:47:49;32.00;81.10
23186;DHT22;11761;51.324;4.590;2022-08-25T13:52:57;32.10;81.60
23186;DHT22;11761;51.324;4.590;2022-08-25T13:55:57;32.00;79.10
23186;DHT22;11761;51.324;4.590;2022-08-25T13:58:32;31.80;83.90
23186;DHT22;11761;51.324;4.590;2022-08-25T14:03:31;31.80;82.30
23186;DHT22;11761;51.324;4.590;2022-08-25T14:06:08;31.70;90.10
23186;DHT22;11761;51.324;4.590;2022-08-25T14:08:38;31.40;85.90
23186;DHT22;11761;51.324;4.590;2022-08-25T14:13:33;30.90;91.70
23186;DHT22;11761;51.324;4.590;2022-08-25T14:18:34;30.50;92.60
23186;DHT22;11761;51.324;4.590;2022-08-25T14:21:06;30.40;93.40
23186;DHT22;11761;51.324;4.590;2022-08-25T14:23:35;30.40;93.60
23186;DHT22;11761;51.324;4.590;2022-08-25T14:26:02;30.70;92.80
23186;DHT22;11761;51.324;4.590;2022-08-25T14:28:29;31.00;92.40
23186;DHT22;11761;51.324;4.590;2022-08-25T14:31:01;31.30;92.70
23186;DHT22;11761;51.324;4.590;2022-08-25T14:33:36;31.40;92.80
23186;DHT22;11761;51.324;4.590;2022-08-25T14:36:03;31.30;92.20
23186;DHT22;11761;51.324;4.590;2022-08-25T14:38:31;31.30;93.10
23186;DHT22;11761;51.324;4.590;2022-08-25T14:40:58;31.30;91.70
23186;DHT22;11761;51.324;4.590;2022-08-25T14:43:24;31.40;92.00
23186;DHT22;11761;51.324;4.590;2022-08-25T14:45:50;31.50;92.40
23186;DHT22;11761;51.324;4.590;2022-08-25T14:48:29;31.60;92.70
23186;DHT22;11761;51.324;4.590;2022-08-25T14:50:58;31.70;92.90
23186;DHT22;11761;51.324;4.590;2022-08-25T14:53:26;31.70;93.10
23186;DHT22;11761;51.324;4.590;2022-08-25T14:55:52;31.60;92.90
23186;DHT22;11761;51.324;4.590;2022-08-25T14:58:21;31.50;93.10
23186;DHT22;11761;51.324;4.590;2022-08-25T15:00:48;31.50;93.50
23186;DHT22;11761;51.324;4.590;2022-08-25T15:03:17;31.50;93.30
23186;DHT22;11761;51.324;4.590;2022-08-25T15:05:45;31.40;93.20
23186;DHT22;11761;51.324;4.590;2022-08-25T15:08:11;31.40;92.50
23186;DHT22;11761;51.324;4.590;2022-08-25T15:10:56;31.30;93.50
23186;DHT22;11761;51.324;4.590;2022-08-25T15:13:22;31.30;93.70
23186;DHT22;11761;51.324;4.590;2022-08-25T15:15:49;31.20;92.80
23186;DHT22;11761;51.324;4.590;2022-08-25T15:18:16;31.10;93.40
23186;DHT22;11761;51.324;4.590;2022-08-25T15:20:43;30.90;93.50
23186;DHT22;11761;51.324;4.590;2022-08-25T15:23:09;30.80;93.10
23186;DHT22;11761;51.324;4.590;2022-08-25T15:25:35;30.80;92.90
23186;DHT22;11761;51.324;4.590;2022-08-25T15:28:05;30.70;94.70
23186;DHT22;11761;51.324;4.590;2022-08-25T15:30:34;30.40;96.00
23186;DHT22;11761;51.324;4.590;2022-08-25T15:33:01;30.00;97.10
23186;DHT22;11761;51.324;4.590;2022-08-25T15:35:27;29.90;97.70
23186;DHT22;11761;51.324;4.590;2022-08-25T15:37:53;29.80;98.80
23186;DHT22;11761;51.324;4.590;2022-08-25T15:40:19;29.80;99.50
23186;DHT22;11761;51.324;4.590;2022-08-25T15:42:45;29.50;99.90
23186;DHT22;11761;51.324;4.590;2022-08-25T15:45:12;29.40;99.90
23186;DHT22;11761;51.324;4.590;2022-08-25T15:47:39;29.40;99.90
23186;DHT22;11761;51.324;4.590;2022-08-25T15:50:09;29.30;99.90
23186;DHT22;11761;51.324;4.590;2022-08-25T15:52:35;29.20;99.90
23186;DHT22;11761;51.324;4.590;2022-08-25T15:55:02;28.90;99.90
23186;DHT22;11761;51.324;4.590;2022-08-25T15:57:28;28.70;99.90
23186;DHT22;11761;51.324;4.590;2022-08-25T15:59:54;28.60;99.90
23186;DHT22;11761;51.324;4.590;2022-08-25T16:02:21;28.60;99.90
23186;DHT22;11761;51.324;4.590;2022-08-25T16:04:47;28.40;99.90
23186;DHT22;11761;51.324;4.590;2022-08-25T16:07:13;28.40;99.90
23186;DHT22;11761;51.324;4.590;2022-08-25T16:09:39;28.20;99.90
23186;DHT22;11761;51.324;4.590;2022-08-25T16:12:06;28.10;99.90
23186;DHT22;11761;51.324;4.590;2022-08-25T16:14:32;28.00;99.90
23186;DHT22;11761;51.324;4.590;2022-08-25T16:16:58;28.10;99.90
23186;DHT22;11761;51.324;4.590;2022-08-25T16:19:26;28.10;99.90
23186;DHT22;11761;51.324;4.590;2022-08-25T16:21:52;28.00;99.90
23186;DHT22;11761;51.324;4.590;2022-08-25T16:24:19;27.90;99.90
23186;DHT22;11761;51.324;4.590;2022-08-25T16:26:45;27.90;99.90
23186;DHT22;11761;51.324;4.590;2022-08-25T16:29:12;27.80;99.90
23186;DHT22;11761;51.324;4.590;2022-08-25T16:31:40;27.70;99.90
23186;DHT22;11761;51.324;4.590;2022-08-25T16:34:06;27.60;99.90
23186;DHT22;11761;51.324;4.590;2022-08-25T16:36:32;27.30;99.90
23186;DHT22;11761;51.324;4.590;2022-08-25T16:38:58;27.10;99.90
23186;DHT22;11761;51.324;4.590;2022-08-25T16:41:28;26.90;99.90
23186;DHT22;11761;51.324;4.590;2022-08-25T16:44:01;26.70;99.90
23186;DHT22;11761;51.324;4.590;2022-08-25T16:46:27;26.60;99.90
23186;DHT22;11761;51.324;4.590;2022-08-25T16:48:54;26.40;99.90
23186;DHT22;11761;51.324;4.590;2022-08-25T16:51:21;26.40;99.90
23186;DHT22;11761;51.324;4.590;2022-08-25T16:53:47;26.40;99.90
23186;DHT22;11761;51.324;4.590;2022-08-25T16:56:33;26.40;99.90
23186;DHT22;11761;51.324;4.590;2022-08-25T16:59:01;26.30;99.90
23186;DHT22;11761;51.324;4.590;2022-08-25T17:01:29;26.10;99.90
23186;DHT22;11761;51.324;4.590;2022-08-25T17:03:57;26.10;99.90
23186;DHT22;11761;51.324;4.590;2022-08-25T17:06:25;26.10;99.90
23186;DHT22;11761;51.324;4.590;2022-08-25T17:08:52;26.00;99.90
23186;DHT22;11761;51.324;4.590;2022-08-25T17:11:23;25.90;99.90
23186;DHT22;11761;51.324;4.590;2022-08-25T17:13:54;25.70;99.90
23186;DHT22;11761;51.324;4.590;2022-08-25T17:16:23;25.60;99.90
23186;DHT22;11761;51.324;4.590;2022-08-25T17:18:53;25.50;99.90
23186;DHT22;11761;51.324;4.590;2022-08-25T17:21:20;25.40;99.90
23186;DHT22;11761;51.324;4.590;2022-08-25T17:23:48;25.40;99.90
23186;DHT22;11761;51.324;4.590;2022-08-25T17:26:15;25.20;99.90
23186;DHT22;11761;51.324;4.590;2022-08-25T17:28:42;25.20;99.90
23186;DHT22;11761;51.324;4.590;2022-08-25T17:31:10;25.20;99.90
23186;DHT22;11761;51.324;4.590;2022-08-25T17:33:37;25.10;99.90
23186;DHT22;11761;51.324;4.590;2022-08-25T17:36:04;25.00;99.90
23186;DHT22;11761;51.324;4.590;2022-08-25T17:38:30;25.00;99.90
23186;DHT22;11761;51.324;4.590;2022-08-25T17:41:00;24.90;99.90
23186;DHT22;11761;51.324;4.590;2022-08-25T17:43:28;24.90;99.90
23186;DHT22;11761;51.324;4.590;2022-08-25T17:45:56;24.80;99.90
23186;DHT22;11761;51.324;4.590;2022-08-25T17:48:23;24.70;99.90
23186;DHT22;11761;51.324;4.590;2022-08-25T17:50:50;24.60;99.90
23186;DHT22;11761;51.324;4.590;2022-08-25T17:53:16;24.50;99.90